sensor_id;sensor_type;location;lat;lon;timestamp;pressure;altitude;pressure_sealevel;temperature;humidity
36630;BME280;36256;42.154;23.002;2022-12-18T00:01:20;97851.53;;;11.30;100.00
36630;BME280;36256;42.154;23.002;2022-12-18T00:03:48;97854.00;;;11.28;100.00
36630;BME280;36256;42.154;23.002;2022-12-18T00:06:15;97857.25;;;11.27;100.00
36630;BME280;36256;42.154;23.002;2022-12-18T00:08:44;97852.28;;;11.18;100.00
36630;BME280;36256;42.154;23.002;2022-12-18T00:11:13;97867.16;;;11.31;100.00
36630;BME280;36256;42.154;23.002;2022-12-18T00:13:40;97863.22;;;11.29;100.00
36630;BME280;36256;42.154;23.002;2022-12-18T00:16:10;97874.00;;;11.30;100.00
36630;BME280;36256;42.154;23.002;2022-12-18T00:18:37;97879.53;;;11.34;100.00
36630;BME280;36256;42.154;23.002;2022-12-18T00:21:07;97882.53;;;11.27;100.00
36630;BME280;36256;42.154;23.002;2022-12-18T00:23:34;97888.25;;;11.23;100.00
36630;BME280;36256;42.154;23.002;2022-12-18T00:26:05;97890.63;;;11.25;100.00
36630;BME280;36256;42.154;23.002;2022-12-18T00:28:33;97889.38;;;11.26;100.00
36630;BME280;36256;42.154;23.002;2022-12-18T00:31:08;97887.28;;;11.30;100.00
36630;BME280;36256;42.154;23.002;2022-12-18T00:33:35;97891.31;;;11.29;100.00
36630;BME280;36256;42.154;23.002;2022-12-18T00:36:11;97879.03;;;11.23;100.00
36630;BME280;36256;42.154;23.002;2022-12-18T00:38:40;97902.09;;;11.30;100.00
36630;BME280;36256;42.154;23.002;2022-12-18T00:41:08;97896.59;;;11.27;100.00
36630;BME280;36256;42.154;23.002;2022-12-18T00:43:36;97896.38;;;11.34;100.00
36630;BME280;36256;42.154;23.002;2022-12-18T00:46:04;97910.97;;;11.29;100.00
36630;BME280;36256;42.154;23.002;2022-12-18T00:48:31;97909.19;;;11.35;100.00
36630;BME280;36256;42.154;23.002;2022-12-18T00:50:58;97915.84;;;11.41;100.00
36630;BME280;36256;42.154;23.002;2022-12-18T00:53:24;97921.81;;;11.43;100.00
36630;BME280;36256;42.154;23.002;2022-12-18T00:55:51;97917.09;;;11.40;100.00
36630;BME280;36256;42.154;23.002;2022-12-18T00:58:18;97900.53;;;11.29;100.00
36630;BME280;36256;42.154;23.002;2022-12-18T01:00:45;97921.03;;;11.42;100.00
36630;BME280;36256;42.154;23.002;2022-12-18T01:03:15;97906.63;;;11.40;100.00
36630;BME280;36256;42.154;23.002;2022-12-18T01:05:41;97929.13;;;11.40;100.00
36630;BME280;36256;42.154;23.002;2022-12-18T01:08:08;97918.25;;;11.26;100.00
36630;BME280;36256;42.154;23.002;2022-12-18T01:10:35;97926.09;;;11.19;100.00
36630;BME280;36256;42.154;23.002;2022-12-18T01:13:02;97924.16;;;11.16;100.00
36630;BME280;36256;42.154;23.002;2022-12-18T01:15:28;97931.22;;;11.07;100.00
36630;BME280;36256;42.154;23.002;2022-12-18T01:17:55;97919.75;;;11.02;100.00
36630;BME280;36256;42.154;23.002;2022-12-18T01:20:21;97930.00;;;11.09;100.00
36630;BME280;36256;42.154;23.002;2022-12-18T01:22:48;97930.19;;;11.01;100.00
36630;BME280;36256;42.154;23.002;2022-12-18T01:25:14;97936.72;;;11.11;100.00
36630;BME280;36256;42.154;23.002;2022-12-18T01:27:41;97934.72;;;11.12;100.00
36630;BME280;36256;42.154;23.002;2022-12-18T01:30:08;97936.31;;;11.13;100.00
36630;BME280;36256;42.154;23.002;2022-12-18T01:32:35;97940.16;;;11.19;100.00
36630;BME280;36256;42.154;23.002;2022-12-18T01:35:02;97906.81;;;11.04;100.00
36630;BME280;36256;42.154;23.002;2022-12-18T01:37:29;97932.88;;;11.21;100.00
36630;BME280;36256;42.154;23.002;2022-12-18T01:39:55;97935.34;;;11.19;100.00
36630;BME280;36256;42.154;23.002;2022-12-18T01:42:22;97945.56;;;11.26;100.00
36630;BME280;36256;42.154;23.002;2022-12-18T01:45:02;97945.56;;;11.26;100.00
36630;BME280;36256;42.154;23.002;2022-12-18T01:47:45;97946.28;;;11.30;100.00
36630;BME280;36256;42.154;23.002;2022-12-18T01:50:19;97945.56;;;11.26;100.00
36630;BME280;36256;42.154;23.002;2022-12-18T01:52:50;97946.47;;;11.23;100.00
36630;BME280;36256;42.154;23.002;2022-12-18T01:55:20;97939.06;;;11.29;100.00
36630;BME280;36256;42.154;23.002;2022-12-18T01:57:49;97932.66;;;11.28;100.00
36630;BME280;36256;42.154;23.002;2022-12-18T02:00:20;97921.97;;;11.23;100.00
36630;BME280;36256;42.154;23.002;2022-12-18T02:02:47;97943.50;;;11.42;100.00
36630;BME280;36256;42.154;23.002;2022-12-18T02:08:09;97952.19;;;11.48;100.00
36630;BME280;36256;42.154;23.002;2022-12-18T02:15:57;97968.06;;;11.54;100.00
36630;BME280;36256;42.154;23.002;2022-12-18T02:18:37;97963.19;;;11.42;100.00
36630;BME280;36256;42.154;23.002;2022-12-18T02:27:09;97960.16;;;11.21;100.00
36630;BME280;36256;42.154;23.002;2022-12-18T02:29:46;97945.94;;;11.12;100.00
36630;BME280;36256;42.154;23.002;2022-12-18T02:32:26;97971.56;;;11.30;100.00
36630;BME280;36256;42.154;23.002;2022-12-18T02:34:56;97980.13;;;11.39;100.00
36630;BME280;36256;42.154;23.002;2022-12-18T02:37:25;97980.47;;;11.41;100.00
36630;BME280;36256;42.154;23.002;2022-12-18T02:39:55;97987.69;;;11.42;100.00
36630;BME280;36256;42.154;23.002;2022-12-18T02:42:23;97981.56;;;11.31;100.00
36630;BME280;36256;42.154;23.002;2022-12-18T02:44:51;97985.09;;;11.19;100.00
36630;BME280;36256;42.154;23.002;2022-12-18T02:47:18;97984.75;;;11.00;100.00
36630;BME280;36256;42.154;23.002;2022-12-18T02:57:58;97984.53;;;10.79;100.00
36630;BME280;36256;42.154;23.002;2022-12-18T03:00:39;97987.75;;;10.77;100.00
36630;BME280;36256;42.154;23.002;2022-12-18T03:05:45;97993.91;;;10.88;100.00
36630;BME280;36256;42.154;23.002;2022-12-18T03:08:28;97992.34;;;10.87;100.00
36630;BME280;36256;42.154;23.002;2022-12-18T03:11:05;97993.03;;;10.91;100.00
36630;BME280;36256;42.154;23.002;2022-12-18T03:13:50;98004.97;;;10.95;100.00
36630;BME280;36256;42.154;23.002;2022-12-18T03:16:24;98003.03;;;10.92;100.00
36630;BME280;36256;42.154;23.002;2022-12-18T03:18:54;98006.72;;;10.89;100.00
36630;BME280;36256;42.154;23.002;2022-12-18T03:21:33;98014.44;;;10.85;100.00
36630;BME280;36256;42.154;23.002;2022-12-18T03:24:01;98031.88;;;10.61;100.00
36630;BME280;36256;42.154;23.002;2022-12-18T03:26:31;98027.03;;;10.45;100.00
36630;BME280;36256;42.154;23.002;2022-12-18T03:29:17;98033.59;;;10.39;100.00
36630;BME280;36256;42.154;23.002;2022-12-18T03:31:49;98040.31;;;10.25;100.00
36630;BME280;36256;42.154;23.002;2022-12-18T03:34:23;98040.16;;;10.32;100.00
36630;BME280;36256;42.154;23.002;2022-12-18T03:36:52;98045.22;;;10.37;100.00
36630;BME280;36256;42.154;23.002;2022-12-18T03:39:19;98052.44;;;10.38;100.00
36630;BME280;36256;42.154;23.002;2022-12-18T03:47:24;98067.41;;;10.32;100.00
36630;BME280;36256;42.154;23.002;2022-12-18T03:50:14;98083.66;;;10.20;100.00
36630;BME280;36256;42.154;23.002;2022-12-18T03:55:14;98069.31;;;9.76;100.00
36630;BME280;36256;42.154;23.002;2022-12-18T03:57:41;98078.59;;;9.73;100.00
36630;BME280;36256;42.154;23.002;2022-12-18T04:00:12;98085.06;;;9.70;100.00
36630;BME280;36256;42.154;23.002;2022-12-18T04:02:43;98086.78;;;9.64;100.00
36630;BME280;36256;42.154;23.002;2022-12-18T04:05:12;98100.66;;;9.71;100.00
36630;BME280;36256;42.154;23.002;2022-12-18T04:07:41;98107.34;;;9.77;100.00
36630;BME280;36256;42.154;23.002;2022-12-18T04:10:11;98107.84;;;9.72;100.00
36630;BME280;36256;42.154;23.002;2022-12-18T04:12:38;98112.69;;;9.71;100.00
36630;BME280;36256;42.154;23.002;2022-12-18T04:15:05;98108.16;;;9.77;100.00
36630;BME280;36256;42.154;23.002;2022-12-18T04:17:32;98107.59;;;9.86;100.00
36630;BME280;36256;42.154;23.002;2022-12-18T04:19:59;98114.63;;;9.94;100.00
36630;BME280;36256;42.154;23.002;2022-12-18T04:22:25;98112.31;;;9.89;100.00
36630;BME280;36256;42.154;23.002;2022-12-18T04:24:52;98139.50;;;9.92;100.00
36630;BME280;36256;42.154;23.002;2022-12-18T04:27:18;98141.59;;;9.88;100.00
36630;BME280;36256;42.154;23.002;2022-12-18T04:29:45;98148.56;;;9.80;100.00
36630;BME280;36256;42.154;23.002;2022-12-18T04:32:11;98137.34;;;9.80;100.00
36630;BME280;36256;42.154;23.002;2022-12-18T04:34:38;98153.22;;;9.86;100.00
36630;BME280;36256;42.154;23.002;2022-12-18T04:37:04;98152.91;;;9.81;100.00
36630;BME280;36256;42.154;23.002;2022-12-18T04:39:31;98154.81;;;9.87;100.00
36630;BME280;36256;42.154;23.002;2022-12-18T04:42:01;98147.38;;;9.77;100.00
36630;BME280;36256;42.154;23.002;2022-12-18T04:44:27;98160.06;;;9.85;100.00
36630;BME280;36256;42.154;23.002;2022-12-18T04:46:54;98169.97;;;9.90;100.00
36630;BME280;36256;42.154;23.002;2022-12-18T04:49:22;98171.44;;;9.98;100.00
36630;BME280;36256;42.154;23.002;2022-12-18T04:51:48;98169.72;;;10.04;100.00
36630;BME280;36256;42.154;23.002;2022-12-18T04:54:15;98183.72;;;10.04;100.00
36630;BME280;36256;42.154;23.002;2022-12-18T04:56:41;98184.25;;;9.99;99.90
36630;BME280;36256;42.154;23.002;2022-12-18T04:59:08;98184.38;;;9.92;98.87
36630;BME280;36256;42.154;23.002;2022-12-18T05:01:34;98172.66;;;9.74;98.20
36630;BME280;36256;42.154;23.002;2022-12-18T05:04:02;98202.16;;;9.82;98.16
36630;BME280;36256;42.154;23.002;2022-12-18T05:06:29;98191.81;;;9.56;98.44
36630;BME280;36256;42.154;23.002;2022-12-18T05:08:55;98204.97;;;9.59;99.04
36630;BME280;36256;42.154;23.002;2022-12-18T05:11:22;98215.94;;;9.49;98.82
36630;BME280;36256;42.154;23.002;2022-12-18T05:13:49;98218.03;;;9.42;98.36
36630;BME280;36256;42.154;23.002;2022-12-18T05:16:15;98209.03;;;9.31;98.48
36630;BME280;36256;42.154;23.002;2022-12-18T05:18:42;98206.75;;;9.22;99.53
36630;BME280;36256;42.154;23.002;2022-12-18T05:21:09;98200.41;;;9.18;99.35
36630;BME280;36256;42.154;23.002;2022-12-18T05:23:35;98212.03;;;9.17;99.74
36630;BME280;36256;42.154;23.002;2022-12-18T05:26:05;98213.56;;;9.21;100.00
36630;BME280;36256;42.154;23.002;2022-12-18T05:28:33;98227.81;;;9.30;100.00
36630;BME280;36256;42.154;23.002;2022-12-18T05:31:02;98219.00;;;9.32;100.00
36630;BME280;36256;42.154;23.002;2022-12-18T05:33:31;98233.34;;;9.37;97.78
36630;BME280;36256;42.154;23.002;2022-12-18T05:36:03;98227.09;;;9.26;97.50
36630;BME280;36256;42.154;23.002;2022-12-18T05:38:31;98243.31;;;9.38;99.15
36630;BME280;36256;42.154;23.002;2022-12-18T05:40:58;98244.03;;;9.42;99.43
36630;BME280;36256;42.154;23.002;2022-12-18T05:43:26;98238.88;;;9.41;98.19
36630;BME280;36256;42.154;23.002;2022-12-18T05:45:53;98247.56;;;9.46;96.71
36630;BME280;36256;42.154;23.002;2022-12-18T05:48:20;98245.13;;;9.48;96.18
36630;BME280;36256;42.154;23.002;2022-12-18T05:50:49;98217.47;;;9.27;95.60
36630;BME280;36256;42.154;23.002;2022-12-18T05:53:18;98241.38;;;9.35;95.90
36630;BME280;36256;42.154;23.002;2022-12-18T05:55:46;98240.97;;;9.33;96.02
36630;BME280;36256;42.154;23.002;2022-12-18T05:58:14;98246.84;;;9.42;95.68
36630;BME280;36256;42.154;23.002;2022-12-18T06:00:45;98250.06;;;9.41;95.60
36630;BME280;36256;42.154;23.002;2022-12-18T06:03:12;98252.81;;;9.44;97.38
36630;BME280;36256;42.154;23.002;2022-12-18T06:05:44;98256.34;;;9.48;96.52
36630;BME280;36256;42.154;23.002;2022-12-18T06:08:12;98265.38;;;9.60;96.49
36630;BME280;36256;42.154;23.002;2022-12-18T06:10:40;98251.53;;;9.49;95.30
36630;BME280;36256;42.154;23.002;2022-12-18T06:13:07;98262.66;;;9.56;95.40
36630;BME280;36256;42.154;23.002;2022-12-18T06:15:36;98268.28;;;9.52;94.37
36630;BME280;36256;42.154;23.002;2022-12-18T06:18:03;98274.31;;;9.51;94.08
36630;BME280;36256;42.154;23.002;2022-12-18T06:20:32;98282.06;;;9.43;94.89
36630;BME280;36256;42.154;23.002;2022-12-18T06:22:59;98285.00;;;9.33;93.12
36630;BME280;36256;42.154;23.002;2022-12-18T06:25:26;98273.22;;;9.18;93.96
36630;BME280;36256;42.154;23.002;2022-12-18T06:27:53;98292.91;;;9.11;93.57
36630;BME280;36256;42.154;23.002;2022-12-18T06:30:19;98292.97;;;9.08;93.76
36630;BME280;36256;42.154;23.002;2022-12-18T06:32:48;98287.69;;;9.13;93.74
36630;BME280;36256;42.154;23.002;2022-12-18T06:35:21;98304.19;;;9.04;94.87
36630;BME280;36256;42.154;23.002;2022-12-18T06:37:48;98291.84;;;9.02;94.37
36630;BME280;36256;42.154;23.002;2022-12-18T06:40:14;98297.03;;;9.03;94.09
36630;BME280;36256;42.154;23.002;2022-12-18T06:42:41;98298.66;;;9.01;94.54
36630;BME280;36256;42.154;23.002;2022-12-18T06:45:08;98301.38;;;9.04;93.83
36630;BME280;36256;42.154;23.002;2022-12-18T06:47:35;98301.75;;;9.06;94.04
36630;BME280;36256;42.154;23.002;2022-12-18T06:50:02;98309.72;;;9.11;93.75
36630;BME280;36256;42.154;23.002;2022-12-18T06:52:31;98299.47;;;8.98;93.19
36630;BME280;36256;42.154;23.002;2022-12-18T06:54:58;98319.31;;;9.10;94.08
36630;BME280;36256;42.154;23.002;2022-12-18T06:57:24;98322.22;;;9.03;92.98
36630;BME280;36256;42.154;23.002;2022-12-18T06:59:51;98321.00;;;9.04;94.12
36630;BME280;36256;42.154;23.002;2022-12-18T07:02:17;98334.53;;;9.09;93.78
36630;BME280;36256;42.154;23.002;2022-12-18T07:04:44;98336.09;;;9.10;91.71
36630;BME280;36256;42.154;23.002;2022-12-18T07:07:11;98341.72;;;9.10;91.76
36630;BME280;36256;42.154;23.002;2022-12-18T07:09:37;98339.38;;;9.05;91.21
36630;BME280;36256;42.154;23.002;2022-12-18T07:12:04;98349.03;;;9.01;93.44
36630;BME280;36256;42.154;23.002;2022-12-18T07:14:31;98349.34;;;9.06;92.07
36630;BME280;36256;42.154;23.002;2022-12-18T07:16:57;98347.78;;;9.05;92.88
36630;BME280;36256;42.154;23.002;2022-12-18T07:19:25;98375.72;;;9.09;92.44
36630;BME280;36256;42.154;23.002;2022-12-18T07:21:52;98364.22;;;9.00;91.67
36630;BME280;36256;42.154;23.002;2022-12-18T07:24:18;98373.06;;;8.98;90.74
36630;BME280;36256;42.154;23.002;2022-12-18T07:26:48;98375.09;;;8.94;92.26
36630;BME280;36256;42.154;23.002;2022-12-18T07:29:14;98369.88;;;8.96;92.94
36630;BME280;36256;42.154;23.002;2022-12-18T07:31:41;98361.59;;;8.86;91.34
36630;BME280;36256;42.154;23.002;2022-12-18T07:34:12;98373.91;;;8.95;91.68
36630;BME280;36256;42.154;23.002;2022-12-18T07:36:39;98376.97;;;9.04;89.65
36630;BME280;36256;42.154;23.002;2022-12-18T07:39:06;98386.59;;;9.03;89.82
36630;BME280;36256;42.154;23.002;2022-12-18T07:41:32;98364.34;;;8.89;89.00
36630;BME280;36256;42.154;23.002;2022-12-18T07:43:59;98387.94;;;8.92;90.16
36630;BME280;36256;42.154;23.002;2022-12-18T07:46:25;98377.91;;;8.94;89.49
36630;BME280;36256;42.154;23.002;2022-12-18T07:48:52;98385.00;;;9.06;90.86
36630;BME280;36256;42.154;23.002;2022-12-18T07:51:19;98376.59;;;9.06;90.38
36630;BME280;36256;42.154;23.002;2022-12-18T07:53:46;98398.38;;;9.21;90.25
36630;BME280;36256;42.154;23.002;2022-12-18T07:56:17;98406.72;;;9.28;89.73
36630;BME280;36256;42.154;23.002;2022-12-18T07:58:53;98406.22;;;9.33;90.44
36630;BME280;36256;42.154;23.002;2022-12-18T08:01:20;98418.16;;;9.41;89.84
36630;BME280;36256;42.154;23.002;2022-12-18T08:03:47;98422.50;;;9.45;88.54
36630;BME280;36256;42.154;23.002;2022-12-18T08:06:15;98422.66;;;9.31;87.47
36630;BME280;36256;42.154;23.002;2022-12-18T08:08:42;98425.69;;;9.14;88.65
36630;BME280;36256;42.154;23.002;2022-12-18T08:11:08;98414.00;;;8.85;87.92
36630;BME280;36256;42.154;23.002;2022-12-18T08:13:35;98426.31;;;8.95;88.78
36630;BME280;36256;42.154;23.002;2022-12-18T08:16:05;98421.13;;;8.93;88.94
36630;BME280;36256;42.154;23.002;2022-12-18T08:18:33;98421.13;;;8.93;88.43
36630;BME280;36256;42.154;23.002;2022-12-18T08:21:09;98428.97;;;9.05;88.23
36630;BME280;36256;42.154;23.002;2022-12-18T08:23:37;98426.50;;;9.14;88.03
36630;BME280;36256;42.154;23.002;2022-12-18T08:26:09;98435.25;;;9.16;88.43
36630;BME280;36256;42.154;23.002;2022-12-18T08:28:36;98443.94;;;9.25;88.45
36630;BME280;36256;42.154;23.002;2022-12-18T08:31:02;98435.91;;;9.27;86.74
36630;BME280;36256;42.154;23.002;2022-12-18T08:33:30;98434.28;;;9.30;88.50
36630;BME280;36256;42.154;23.002;2022-12-18T08:35:58;98447.78;;;9.38;87.52
36630;BME280;36256;42.154;23.002;2022-12-18T08:38:25;98446.22;;;9.37;84.59
36630;BME280;36256;42.154;23.002;2022-12-18T08:41:11;98456.75;;;9.26;84.77
36630;BME280;36256;42.154;23.002;2022-12-18T08:43:39;98439.84;;;9.33;84.33
36630;BME280;36256;42.154;23.002;2022-12-18T08:46:26;98438.34;;;9.25;83.02
36630;BME280;36256;42.154;23.002;2022-12-18T08:48:54;98439.53;;;9.28;85.98
36630;BME280;36256;42.154;23.002;2022-12-18T08:51:22;98440.25;;;9.35;85.60
36630;BME280;36256;42.154;23.002;2022-12-18T08:53:49;98436.50;;;9.45;85.73
36630;BME280;36256;42.154;23.002;2022-12-18T08:56:16;98442.78;;;9.57;84.23
36630;BME280;36256;42.154;23.002;2022-12-18T08:58:43;98442.22;;;9.69;81.81
36630;BME280;36256;42.154;23.002;2022-12-18T09:01:11;98431.66;;;9.80;82.83
36630;BME280;36256;42.154;23.002;2022-12-18T09:03:39;98411.94;;;10.40;79.34
36630;BME280;36256;42.154;23.002;2022-12-18T09:06:06;98427.09;;;10.89;74.69
36630;BME280;36256;42.154;23.002;2022-12-18T09:08:36;98427.22;;;10.82;74.94
36630;BME280;36256;42.154;23.002;2022-12-18T09:11:03;98413.31;;;10.52;74.95
36630;BME280;36256;42.154;23.002;2022-12-18T09:13:30;98442.81;;;10.63;74.26
36630;BME280;36256;42.154;23.002;2022-12-18T09:15:57;98453.31;;;10.59;76.36
36630;BME280;36256;42.154;23.002;2022-12-18T09:18:24;98440.63;;;10.51;76.41
36630;BME280;36256;42.154;23.002;2022-12-18T09:20:51;98439.25;;;10.36;76.62
36630;BME280;36256;42.154;23.002;2022-12-18T09:23:20;98450.84;;;10.38;77.97
36630;BME280;36256;42.154;23.002;2022-12-18T09:25:46;98432.56;;;10.26;75.22
36630;BME280;36256;42.154;23.002;2022-12-18T09:28:17;98431.31;;;10.31;76.68
36630;BME280;36256;42.154;23.002;2022-12-18T09:30:49;98423.75;;;10.28;76.35
36630;BME280;36256;42.154;23.002;2022-12-18T09:33:16;98442.78;;;10.40;76.47
36630;BME280;36256;42.154;23.002;2022-12-18T09:35:44;98432.78;;;10.39;74.93
36630;BME280;36256;42.154;23.002;2022-12-18T09:38:14;98442.28;;;10.22;74.75
36630;BME280;36256;42.154;23.002;2022-12-18T09:40:44;98438.72;;;10.18;77.17
36630;BME280;36256;42.154;23.002;2022-12-18T09:43:35;98439.34;;;10.29;75.99
36630;BME280;36256;42.154;23.002;2022-12-18T09:46:07;98447.97;;;10.42;77.52
36630;BME280;36256;42.154;23.002;2022-12-18T09:48:38;98437.53;;;10.42;75.40
36630;BME280;36256;42.154;23.002;2022-12-18T09:51:23;98445.50;;;10.47;76.48
36630;BME280;36256;42.154;23.002;2022-12-18T09:53:55;98448.78;;;10.42;74.78
36630;BME280;36256;42.154;23.002;2022-12-18T09:56:25;98452.75;;;10.45;75.94
36630;BME280;36256;42.154;23.002;2022-12-18T09:59:02;98436.00;;;10.38;72.00
36630;BME280;36256;42.154;23.002;2022-12-18T10:01:31;98434.19;;;10.27;74.03
36630;BME280;36256;42.154;23.002;2022-12-18T10:04:09;98433.00;;;10.25;72.05
36630;BME280;36256;42.154;23.002;2022-12-18T10:06:45;98435.34;;;10.30;74.99
36630;BME280;36256;42.154;23.002;2022-12-18T10:09:52;98433.63;;;10.36;74.97
36630;BME280;36256;42.154;23.002;2022-12-18T10:12:39;98434.59;;;10.26;72.25
36630;BME280;36256;42.154;23.002;2022-12-18T10:15:31;98433.81;;;10.25;73.53
36630;BME280;36256;42.154;23.002;2022-12-18T10:20:39;98399.28;;;10.28;71.81
36630;BME280;36256;42.154;23.002;2022-12-18T10:26:13;98420.81;;;10.58;71.06
36630;BME280;36256;42.154;23.002;2022-12-18T10:28:42;98419.63;;;10.59;70.89
36630;BME280;36256;42.154;23.002;2022-12-18T10:31:18;98410.31;;;10.39;69.84
36630;BME280;36256;42.154;23.002;2022-12-18T10:33:45;98409.59;;;10.35;68.13
36630;BME280;36256;42.154;23.002;2022-12-18T10:36:12;98408.75;;;10.38;69.20
36630;BME280;36256;42.154;23.002;2022-12-18T10:38:39;98398.13;;;10.26;70.61
36630;BME280;36256;42.154;23.002;2022-12-18T10:41:24;98404.84;;;10.32;71.30
36630;BME280;36256;42.154;23.002;2022-12-18T10:46:48;98405.50;;;10.40;69.91
36630;BME280;36256;42.154;23.002;2022-12-18T10:49:24;98418.19;;;10.48;69.19
36630;BME280;36256;42.154;23.002;2022-12-18T10:52:14;98406.69;;;10.42;67.88
36630;BME280;36256;42.154;23.002;2022-12-18T10:54:48;98399.97;;;10.36;68.86
36630;BME280;36256;42.154;23.002;2022-12-18T10:57:32;98401.38;;;10.48;69.10
36630;BME280;36256;42.154;23.002;2022-12-18T11:00:28;98408.50;;;10.52;68.57
36630;BME280;36256;42.154;23.002;2022-12-18T11:02:55;98404.31;;;10.64;68.94
36630;BME280;36256;42.154;23.002;2022-12-18T11:05:30;98401.72;;;10.73;68.48
36630;BME280;36256;42.154;23.002;2022-12-18T11:07:58;98385.75;;;10.70;66.97
36630;BME280;36256;42.154;23.002;2022-12-18T11:10:32;98403.25;;;10.77;65.86
36630;BME280;36256;42.154;23.002;2022-12-18T11:13:20;98404.50;;;10.53;67.38
36630;BME280;36256;42.154;23.002;2022-12-18T11:15:48;98404.41;;;10.57;66.47
36630;BME280;36256;42.154;23.002;2022-12-18T11:18:34;98406.31;;;10.63;66.84
36630;BME280;36256;42.154;23.002;2022-12-18T11:23:32;98405.47;;;10.43;66.21
36630;BME280;36256;42.154;23.002;2022-12-18T11:26:01;98412.66;;;10.44;69.00
36630;BME280;36256;42.154;23.002;2022-12-18T11:28:46;98424.50;;;10.55;70.40
36630;BME280;36256;42.154;23.002;2022-12-18T11:33:54;98403.41;;;10.20;68.23
36630;BME280;36256;42.154;23.002;2022-12-18T11:36:44;98415.53;;;10.14;68.93
36630;BME280;36256;42.154;23.002;2022-12-18T11:39:36;98417.03;;;10.22;71.38
36630;BME280;36256;42.154;23.002;2022-12-18T11:42:12;98416.75;;;10.40;69.46
36630;BME280;36256;42.154;23.002;2022-12-18T11:44:48;98418.38;;;10.37;68.42
36630;BME280;36256;42.154;23.002;2022-12-18T11:47:44;98411.84;;;10.44;69.33
36630;BME280;36256;42.154;23.002;2022-12-18T11:50:21;98427.56;;;10.64;68.20
36630;BME280;36256;42.154;23.002;2022-12-18T11:52:50;98420.41;;;10.60;66.36
36630;BME280;36256;42.154;23.002;2022-12-18T11:55:38;98408.28;;;10.43;69.40
36630;BME280;36256;42.154;23.002;2022-12-18T12:01:30;98421.34;;;10.53;68.09
36630;BME280;36256;42.154;23.002;2022-12-18T12:18:21;98430.56;;;10.27;70.70
36630;BME280;36256;42.154;23.002;2022-12-18T12:34:47;98428.84;;;9.80;68.35
36630;BME280;36256;42.154;23.002;2022-12-18T12:40:36;98430.44;;;9.81;66.36
36630;BME280;36256;42.154;23.002;2022-12-18T12:46:12;98431.56;;;9.57;66.46
36630;BME280;36256;42.154;23.002;2022-12-18T12:48:49;98445.25;;;9.51;66.93
36630;BME280;36256;42.154;23.002;2022-12-18T12:53:53;98445.59;;;9.57;64.42
36630;BME280;36256;42.154;23.002;2022-12-18T12:56:21;98437.06;;;9.64;64.26
36630;BME280;36256;42.154;23.002;2022-12-18T13:04:30;98448.19;;;9.71;64.87
36630;BME280;36256;42.154;23.002;2022-12-18T13:07:06;98458.16;;;9.75;66.09
36630;BME280;36256;42.154;23.002;2022-12-18T13:23:26;98466.84;;;9.50;65.15
36630;BME280;36256;42.154;23.002;2022-12-18T13:25:55;98474.09;;;9.48;65.36
36630;BME280;36256;42.154;23.002;2022-12-18T13:34:22;98462.19;;;9.40;63.05
36630;BME280;36256;42.154;23.002;2022-12-18T13:36:53;98482.09;;;9.49;65.23
36630;BME280;36256;42.154;23.002;2022-12-18T13:39:24;98478.78;;;9.58;65.50
36630;BME280;36256;42.154;23.002;2022-12-18T13:49:53;98481.47;;;9.31;63.89
36630;BME280;36256;42.154;23.002;2022-12-18T13:52:26;98482.38;;;9.25;62.78
36630;BME280;36256;42.154;23.002;2022-12-18T13:54:56;98484.72;;;9.30;63.56
36630;BME280;36256;42.154;23.002;2022-12-18T13:57:30;98503.06;;;9.34;63.54
36630;BME280;36256;42.154;23.002;2022-12-18T13:59:57;98497.41;;;9.41;64.07
36630;BME280;36256;42.154;23.002;2022-12-18T14:02:26;98490.13;;;9.47;62.53
36630;BME280;36256;42.154;23.002;2022-12-18T14:04:54;98478.16;;;9.43;62.29
36630;BME280;36256;42.154;23.002;2022-12-18T14:07:22;98482.53;;;9.44;62.32
36630;BME280;36256;42.154;23.002;2022-12-18T14:09:55;98478.16;;;9.43;63.22
36630;BME280;36256;42.154;23.002;2022-12-18T14:12:48;98492.16;;;9.43;62.84
36630;BME280;36256;42.154;23.002;2022-12-18T14:15:42;98487.94;;;9.28;62.22
36630;BME280;36256;42.154;23.002;2022-12-18T14:19:05;98492.72;;;9.28;61.88
36630;BME280;36256;42.154;23.002;2022-12-18T14:21:06;98495.28;;;9.15;62.43
36630;BME280;36256;42.154;23.002;2022-12-18T14:23:43;98505.66;;;9.15;61.79
36630;BME280;36256;42.154;23.002;2022-12-18T14:26:28;98503.34;;;9.10;61.45
36630;BME280;36256;42.154;23.002;2022-12-18T14:29:10;98507.53;;;8.91;61.98
36630;BME280;36256;42.154;23.002;2022-12-18T14:31:44;98503.59;;;8.82;62.53
36630;BME280;36256;42.154;23.002;2022-12-18T14:34:17;98498.06;;;8.75;62.35
36630;BME280;36256;42.154;23.002;2022-12-18T14:36:52;98510.84;;;8.76;62.43
36630;BME280;36256;42.154;23.002;2022-12-18T14:39:19;98531.59;;;8.82;62.71
36630;BME280;36256;42.154;23.002;2022-12-18T14:41:48;98522.75;;;8.83;60.86
36630;BME280;36256;42.154;23.002;2022-12-18T14:44:15;98505.28;;;8.72;61.71
36630;BME280;36256;42.154;23.002;2022-12-18T14:46:44;98531.63;;;8.78;61.54
36630;BME280;36256;42.154;23.002;2022-12-18T14:49:34;98535.69;;;8.66;61.95
36630;BME280;36256;42.154;23.002;2022-12-18T14:52:06;98526.88;;;8.68;61.43
36630;BME280;36256;42.154;23.002;2022-12-18T14:54:46;98526.84;;;8.75;60.75
36630;BME280;36256;42.154;23.002;2022-12-18T14:57:35;98525.28;;;8.70;61.13
36630;BME280;36256;42.154;23.002;2022-12-18T15:00:19;98526.88;;;8.72;61.46
36630;BME280;36256;42.154;23.002;2022-12-18T15:02:55;98528.22;;;8.53;61.31
36630;BME280;36256;42.154;23.002;2022-12-18T15:05:30;98531.88;;;8.43;62.62
36630;BME280;36256;42.154;23.002;2022-12-18T15:07:59;98548.66;;;8.43;63.06
36630;BME280;36256;42.154;23.002;2022-12-18T15:10:33;98549.03;;;8.45;63.51
36630;BME280;36256;42.154;23.002;2022-12-18T15:20:49;98554.97;;;8.54;62.95